Time;durP1;ratioP1;P1;durP2;ratioP2;P2;SDS_P1;SDS_P2;PMS_P1;PMS_P2;Temp;Humidity;BMP_temperature;BMP_pressure;BME280_temperature;BME280_humidity;BME280_pressure;Samples;Min_cycle;Max_cycle;Signal;HPM_P1;HPM_P2
2023/10/25 00:02:24;;;;;;;0.00;0.00;;;8.60;99.90;;;;;;5073903;28;20188;-78
2023/10/25 00:04:56;;;;;;;0.10;0.10;;;8.70;99.90;;;;;;5073807;28;20211;-78
2023/10/25 00:07:21;;;;;;;0.10;0.10;;;8.60;99.90;;;;;;5070740;28;20190;-79
2023/10/25 00:09:47;;;;;;;0.03;0.03;;;8.20;99.90;;;;;;5070053;28;20212;-79
2023/10/25 00:12:13;;;;;;;0.00;0.00;;;8.00;99.90;;;;;;5067404;28;20670;-78
2023/10/25 00:14:38;;;;;;;0.10;0.10;;;8.10;99.90;;;;;;5071287;28;20234;-79
2023/10/25 00:17:04;;;;;;;0.10;0.10;;;8.30;99.90;;;;;;5069461;28;20191;-78
2023/10/25 00:19:30;;;;;;;0.10;0.10;;;8.40;99.90;;;;;;5066815;28;20310;-78
2023/10/25 00:21:55;;;;;;;0.10;0.10;;;8.50;99.90;;;;;;5062226;28;20179;-78
2023/10/25 00:24:22;;;;;;;0.00;0.00;;;8.40;99.90;;;;;;5072165;28;20207;-78
2023/10/25 00:26:47;;;;;;;0.10;0.10;;;8.20;99.90;;;;;;5068690;28;20182;-78
2023/10/25 00:29:13;;;;;;;0.10;0.10;;;8.10;99.90;;;;;;5070377;28;20291;-78
2023/10/25 00:31:38;;;;;;;0.00;0.00;;;8.00;99.90;;;;;;5071659;28;20186;-79
2023/10/25 00:34:04;;;;;;;0.10;0.10;;;8.00;99.90;;;;;;5070162;28;20776;-78
2023/10/25 00:36:29;;;;;;;0.03;0.03;;;8.10;99.90;;;;;;5070216;28;20205;-78
2023/10/25 00:38:55;;;;;;;0.00;0.00;;;8.20;99.90;;;;;;5071497;28;20311;-78
2023/10/25 00:41:20;;;;;;;0.03;0.03;;;8.30;99.90;;;;;;5065568;28;20195;-78
2023/10/25 00:43:46;;;;;;;0.00;0.00;;;8.50;99.90;;;;;;5071612;28;20648;-79
2023/10/25 00:46:19;;;;;;;0.10;0.10;;;8.50;99.90;;;;;;5071148;28;20184;-79
2023/10/25 00:48:47;;;;;;;0.00;0.00;;;8.60;99.90;;;;;;5069514;28;20245;-78
2023/10/25 00:51:14;;;;;;;0.10;0.10;;;8.60;99.90;;;;;;5070295;28;20184;-79
2023/10/25 00:53:48;;;;;;;0.10;0.10;;;8.50;99.90;;;;;;5070318;28;20197;-79
2023/10/25 00:56:15;;;;;;;0.10;0.10;;;8.50;99.90;;;;;;5065660;28;20191;-79
2023/10/25 00:58:44;;;;;;;0.10;0.10;;;8.40;99.90;;;;;;5068873;28;20566;-79
2023/10/25 01:01:11;;;;;;;0.10;0.10;;;8.20;99.90;;;;;;5070558;28;20835;-78
2023/10/25 01:03:36;;;;;;;0.00;0.00;;;8.10;99.90;;;;;;5070440;28;20192;-79
2023/10/25 01:06:02;;;;;;;0.10;0.10;;;8.10;99.90;;;;;;5070343;28;20825;-79
2023/10/25 01:08:28;;;;;;;0.10;0.10;;;8.00;99.90;;;;;;5069549;28;20238;-79
2023/10/25 01:10:54;;;;;;;0.07;0.07;;;8.00;99.90;;;;;;5070927;28;20318;-79
2023/10/25 01:13:21;;;;;;;0.10;0.10;;;8.10;99.90;;;;;;5069217;28;20262;-79
2023/10/25 01:15:47;;;;;;;0.00;0.00;;;8.20;99.90;;;;;;5068782;28;20553;-78
2023/10/25 01:18:14;;;;;;;0.10;0.10;;;8.20;99.90;;;;;;5064595;28;20669;-79
2023/10/25 01:20:40;;;;;;;0.00;0.00;;;8.20;99.90;;;;;;5068465;28;20287;-79
2023/10/25 01:23:06;;;;;;;0.10;0.10;;;8.10;99.90;;;;;;5069528;28;20180;-79
2023/10/25 01:25:32;;;;;;;0.00;0.00;;;8.10;99.90;;;;;;5067802;28;20188;-78
2023/10/25 01:27:58;;;;;;;0.00;0.00;;;8.00;99.90;;;;;;5067137;28;20550;-78
2023/10/25 01:30:24;;;;;;;0.10;0.10;;;8.00;99.90;;;;;;5067962;28;20204;-78
2023/10/25 01:32:50;;;;;;;0.00;0.00;;;8.20;99.90;;;;;;5068209;28;20189;-78
2023/10/25 01:35:15;;;;;;;0.10;0.10;;;8.40;99.90;;;;;;5065553;28;20195;-78
2023/10/25 01:37:41;;;;;;;0.10;0.10;;;8.50;99.90;;;;;;5067222;28;20191;-78
2023/10/25 01:40:07;;;;;;;0.10;0.10;;;8.70;99.90;;;;;;5068198;28;20233;-78
2023/10/25 01:42:33;;;;;;;0.10;0.10;;;8.80;99.90;;;;;;5065437;28;20193;-78
2023/10/25 01:45:01;;;;;;;0.10;0.10;;;8.90;99.90;;;;;;5067979;28;20198;-79
2023/10/25 01:47:26;;;;;;;0.10;0.10;;;8.90;99.90;;;;;;5066884;28;20278;-79
2023/10/25 01:49:52;;;;;;;0.00;0.00;;;8.90;99.90;;;;;;5063723;28;20299;-78
2023/10/25 01:52:17;;;;;;;0.10;0.10;;;9.00;99.90;;;;;;5068180;28;20219;-78
2023/10/25 01:54:45;;;;;;;0.00;0.00;;;9.00;99.90;;;;;;5069003;28;20244;-78
2023/10/25 01:57:10;;;;;;;0.10;0.10;;;9.10;99.90;;;;;;5063738;28;20295;-78
2023/10/25 01:59:36;;;;;;;0.00;0.00;;;9.10;99.90;;;;;;5068743;28;20303;-79
2023/10/25 02:02:01;;;;;;;0.00;0.00;;;9.10;99.90;;;;;;5067195;28;20546;-79
2023/10/25 02:04:27;;;;;;;0.10;0.10;;;9.10;99.90;;;;;;5066694;28;20189;-78
2023/10/25 02:06:53;;;;;;;0.00;0.00;;;9.20;99.90;;;;;;5068857;28;20553;-78
2023/10/25 02:09:19;;;;;;;0.03;0.03;;;9.20;99.90;;;;;;5067481;28;20207;-78
2023/10/25 02:11:44;;;;;;;0.00;0.00;;;9.20;99.90;;;;;;5060369;28;20673;-78
2023/10/25 02:14:10;;;;;;;0.10;0.10;;;9.10;99.90;;;;;;5060450;28;20184;-79
2023/10/25 02:16:36;;;;;;;0.10;0.10;;;9.00;99.90;;;;;;5066178;28;20598;-78
2023/10/25 02:19:01;;;;;;;0.10;0.10;;;8.70;99.90;;;;;;5066794;28;20243;-78
2023/10/25 02:21:27;;;;;;;0.00;0.00;;;8.70;99.90;;;;;;5067301;28;20184;-79
2023/10/25 02:23:53;;;;;;;0.10;0.10;;;8.80;99.90;;;;;;5063603;28;20301;-79
2023/10/25 02:26:19;;;;;;;0.00;0.00;;;8.50;99.90;;;;;;5060440;28;20193;-78
2023/10/25 02:28:44;;;;;;;0.10;0.10;;;8.20;99.90;;;;;;5062267;28;20349;-79
2023/10/25 02:31:10;;;;;;;0.10;0.10;;;8.10;99.90;;;;;;5063942;28;20187;-79
2023/10/25 02:33:35;;;;;;;0.00;0.00;;;8.20;99.90;;;;;;5066056;28;20184;-78
2023/10/25 02:36:01;;;;;;;0.10;0.10;;;8.30;99.90;;;;;;5070424;28;20211;-78
2023/10/25 02:38:26;;;;;;;0.10;0.10;;;8.20;99.90;;;;;;5071235;28;20301;-78
2023/10/25 02:40:52;;;;;;;0.00;0.00;;;8.00;99.90;;;;;;5064034;28;20235;-78
2023/10/25 02:43:18;;;;;;;0.00;0.00;;;8.00;99.90;;;;;;5069254;28;20191;-78
2023/10/25 02:45:43;;;;;;;0.00;0.00;;;8.10;99.90;;;;;;5071036;28;20196;-79
2023/10/25 02:48:13;;;;;;;0.00;0.00;;;8.10;99.90;;;;;;5069133;28;20205;-78
2023/10/25 02:50:38;;;;;;;0.00;0.00;;;8.20;99.90;;;;;;5069425;28;20207;-78
2023/10/25 02:53:04;;;;;;;0.00;0.00;;;8.20;99.90;;;;;;5062696;28;20226;-79
2023/10/25 02:55:30;;;;;;;0.10;0.10;;;8.30;99.90;;;;;;5069843;28;20561;-78
2023/10/25 02:57:55;;;;;;;0.00;0.00;;;8.30;99.90;;;;;;5070574;28;20202;-79
2023/10/25 03:00:21;;;;;;;0.00;0.00;;;8.40;99.90;;;;;;5069611;28;20219;-79
2023/10/25 03:02:46;;;;;;;0.00;0.00;;;8.40;99.90;;;;;;5063280;28;20185;-78
2023/10/25 03:05:11;;;;;;;0.10;0.10;;;8.50;99.90;;;;;;5068862;28;20187;-78
2023/10/25 03:07:37;;;;;;;0.10;0.10;;;8.60;99.90;;;;;;5070799;28;20208;-78
2023/10/25 03:10:03;;;;;;;0.00;0.00;;;8.40;99.90;;;;;;5065757;28;20596;-78
2023/10/25 03:12:30;;;;;;;0.00;0.00;;;8.50;99.90;;;;;;5069850;28;20235;-78
2023/10/25 03:14:55;;;;;;;0.10;0.10;;;8.70;99.90;;;;;;5071045;28;20181;-78
2023/10/25 03:17:21;;;;;;;0.00;0.00;;;8.70;99.90;;;;;;5068480;28;20529;-79
2023/10/25 03:19:47;;;;;;;0.00;0.00;;;8.90;99.90;;;;;;5070611;28;20223;-78
2023/10/25 03:22:12;;;;;;;0.10;0.10;;;9.00;99.90;;;;;;5069390;28;20224;-78
2023/10/25 03:24:38;;;;;;;0.10;0.10;;;9.10;99.90;;;;;;5065006;28;20183;-78
2023/10/25 03:27:04;;;;;;;0.10;0.10;;;9.20;99.90;;;;;;5068682;28;20178;-79
2023/10/25 03:29:29;;;;;;;0.10;0.10;;;9.20;99.90;;;;;;5069077;28;20776;-78
2023/10/25 03:31:58;;;;;;;0.00;0.00;;;9.40;99.90;;;;;;5068063;28;20729;-78
2023/10/25 03:34:24;;;;;;;0.10;0.10;;;9.20;99.90;;;;;;5069421;28;20217;-78
2023/10/25 03:36:51;;;;;;;0.07;0.07;;;8.80;99.90;;;;;;5069551;28;20217;-78
2023/10/25 03:39:16;;;;;;;0.10;0.10;;;8.50;99.90;;;;;;5065718;28;20778;-78
2023/10/25 03:41:45;;;;;;;0.10;0.10;;;8.20;99.90;;;;;;5063546;28;20279;-78
2023/10/25 03:44:11;;;;;;;0.10;0.10;;;8.10;99.90;;;;;;5068926;28;20241;-78
2023/10/25 03:46:38;;;;;;;0.00;0.00;;;8.00;99.90;;;;;;5064456;28;20178;-78
2023/10/25 03:49:03;;;;;;;0.07;0.07;;;8.00;99.90;;;;;;5059981;28;20232;-79
2023/10/25 03:51:29;;;;;;;0.10;0.10;;;7.90;99.90;;;;;;5065012;28;20230;-79
2023/10/25 03:53:54;;;;;;;0.10;0.10;;;7.90;99.90;;;;;;5062464;28;20217;-79
2023/10/25 03:56:20;;;;;;;0.10;0.10;;;7.90;99.90;;;;;;5068933;28;21013;-79
2023/10/25 03:58:45;;;;;;;0.00;0.00;;;7.90;99.90;;;;;;5067981;28;20244;-79
2023/10/25 04:01:11;;;;;;;0.10;0.10;;;8.00;99.90;;;;;;5065473;28;20194;-79
2023/10/25 04:03:37;;;;;;;0.00;0.00;;;8.20;99.90;;;;;;5068441;28;20186;-78
2023/10/25 04:06:07;;;;;;;0.10;0.10;;;8.40;99.90;;;;;;5064968;28;20266;-78
2023/10/25 04:08:33;;;;;;;0.00;0.00;;;8.60;99.90;;;;;;5066684;28;20230;-77
2023/10/25 04:10:59;;;;;;;0.10;0.10;;;8.70;99.90;;;;;;5065417;28;20200;-78
2023/10/25 04:13:25;;;;;;;0.00;0.00;;;8.80;99.90;;;;;;5062363;28;20187;-79
2023/10/25 04:16:05;;;;;;;0.00;0.00;;;8.70;99.90;;;;;;5067510;28;22011;-78
2023/10/25 04:18:32;;;;;;;0.10;0.10;;;8.60;99.90;;;;;;5065297;28;20303;-78
2023/10/25 04:20:59;;;;;;;0.10;0.10;;;8.60;99.90;;;;;;5067712;28;20203;-78
2023/10/25 04:23:26;;;;;;;0.10;0.10;;;8.80;99.90;;;;;;5064335;28;20185;-78
2023/10/25 04:25:52;;;;;;;0.00;0.00;;;8.90;99.90;;;;;;5060056;28;20274;-78
2023/10/25 04:28:18;;;;;;;0.10;0.10;;;8.70;99.90;;;;;;5059073;28;20734;-79
2023/10/25 04:30:45;;;;;;;0.07;0.07;;;8.50;99.90;;;;;;5061473;28;20185;-79
2023/10/25 04:33:11;;;;;;;0.10;0.10;;;8.50;99.90;;;;;;5063239;28;20195;-79
2023/10/25 04:35:37;;;;;;;0.10;0.10;;;8.50;99.90;;;;;;5064100;28;20191;-79
2023/10/25 04:38:03;;;;;;;0.10;0.10;;;8.80;99.90;;;;;;5063378;28;20215;-78
2023/10/25 04:40:29;;;;;;;0.10;0.10;;;8.90;99.90;;;;;;5062744;28;20212;-78
2023/10/25 04:42:54;;;;;;;0.10;0.10;;;9.10;99.90;;;;;;5064109;28;20556;-79
2023/10/25 04:45:20;;;;;;;0.00;0.00;;;9.20;99.90;;;;;;5061651;28;20715;-79
2023/10/25 04:47:46;;;;;;;0.10;0.10;;;9.30;99.90;;;;;;5066713;28;20206;-78
2023/10/25 04:50:12;;;;;;;0.10;0.10;;;9.20;99.90;;;;;;5062259;28;20210;-78
2023/10/25 04:52:37;;;;;;;0.03;0.03;;;9.10;99.90;;;;;;5067598;28;20189;-78
2023/10/25 04:55:04;;;;;;;0.00;0.00;;;8.90;99.90;;;;;;5062880;28;20200;-79
2023/10/25 04:57:32;;;;;;;0.10;0.10;;;8.90;99.90;;;;;;5068998;28;20983;-79
2023/10/25 04:59:58;;;;;;;0.00;0.00;;;9.00;99.90;;;;;;5068373;28;20208;-78
2023/10/25 05:02:24;;;;;;;0.10;0.10;;;9.20;99.90;;;;;;5061719;28;20183;-78
2023/10/25 05:04:49;;;;;;;0.00;0.00;;;9.40;99.90;;;;;;5064047;28;20179;-78
2023/10/25 05:07:15;;;;;;;0.10;0.10;;;9.30;99.90;;;;;;5059281;28;20776;-78
2023/10/25 05:09:41;;;;;;;0.10;0.10;;;9.20;99.90;;;;;;5061004;28;20696;-78
2023/10/25 05:12:09;;;;;;;0.00;0.00;;;9.00;99.90;;;;;;5066608;28;20204;-78
2023/10/25 05:14:35;;;;;;;0.10;0.10;;;8.90;99.90;;;;;;5065033;28;20219;-79
2023/10/25 05:17:01;;;;;;;0.10;0.10;;;9.00;99.90;;;;;;5061605;28;20192;-80
2023/10/25 05:19:28;;;;;;;0.10;0.10;;;9.20;99.90;;;;;;5062955;28;20212;-79
2023/10/25 05:21:55;;;;;;;0.10;0.10;;;9.10;99.90;;;;;;5068995;28;20641;-79
2023/10/25 05:24:21;;;;;;;0.10;0.10;;;9.20;99.90;;;;;;5066938;28;20177;-80
2023/10/25 05:26:47;;;;;;;0.10;0.10;;;9.30;99.90;;;;;;5063282;28;20191;-78
2023/10/25 05:29:13;;;;;;;0.00;0.00;;;9.30;99.90;;;;;;5060520;28;20679;-79
2023/10/25 05:31:43;;;;;;;0.10;0.10;;;9.30;99.90;;;;;;5063781;28;20186;-79
2023/10/25 05:34:09;;;;;;;0.13;0.13;;;9.00;99.90;;;;;;5067315;28;20184;-79
2023/10/25 05:36:36;;;;;;;0.00;0.00;;;8.70;99.90;;;;;;5068275;28;20184;-79
2023/10/25 05:39:02;;;;;;;0.00;0.00;;;8.60;99.90;;;;;;5070286;28;20626;-79
2023/10/25 05:41:30;;;;;;;0.10;0.10;;;8.70;99.90;;;;;;5061920;28;20180;-80
2023/10/25 05:44:12;;;;;;;0.10;0.10;;;8.70;99.90;;;;;;5062668;28;20183;-79
2023/10/25 05:46:38;;;;;;;0.07;0.07;;;8.40;99.90;;;;;;5061847;28;20186;-80
2023/10/25 05:49:04;;;;;;;0.10;0.10;;;8.60;99.90;;;;;;5066067;28;20708;-79
2023/10/25 05:51:30;;;;;;;0.00;0.00;;;8.50;99.90;;;;;;5068241;28;20194;-79
2023/10/25 05:53:56;;;;;;;0.00;0.00;;;8.40;99.90;;;;;;5061667;28;20179;-79
2023/10/25 05:56:26;;;;;;;0.03;0.03;;;8.40;99.90;;;;;;5061591;28;20190;-79
2023/10/25 05:58:55;;;;;;;0.10;0.10;;;8.70;99.90;;;;;;5067806;28;20204;-79
2023/10/25 06:01:31;;;;;;;0.10;0.10;;;8.60;99.90;;;;;;5068176;28;20191;-79
2023/10/25 06:03:59;;;;;;;0.00;0.00;;;8.40;99.90;;;;;;5068350;28;20184;-78
2023/10/25 06:06:26;;;;;;;0.00;0.00;;;8.30;99.90;;;;;;5069099;28;20185;-79
2023/10/25 06:08:52;;;;;;;0.00;0.00;;;8.20;99.90;;;;;;5071264;28;20689;-79
2023/10/25 06:11:18;;;;;;;0.10;0.10;;;8.20;99.90;;;;;;5070164;28;20206;-79
2023/10/25 06:13:44;;;;;;;0.10;0.10;;;8.00;99.90;;;;;;5071894;28;20567;-78
2023/10/25 06:16:10;;;;;;;0.00;0.00;;;7.90;99.90;;;;;;5073040;28;20186;-78
2023/10/25 06:18:35;;;;;;;0.00;0.00;;;7.90;99.90;;;;;;5071511;28;20208;-78
2023/10/25 06:21:01;;;;;;;0.10;0.10;;;7.90;99.90;;;;;;5069401;28;20197;-78
2023/10/25 06:23:26;;;;;;;0.00;0.00;;;7.90;99.90;;;;;;5066463;28;20182;-78
2023/10/25 06:25:52;;;;;;;0.10;0.10;;;8.00;99.90;;;;;;5071464;28;20196;-78
2023/10/25 06:28:17;;;;;;;0.10;0.10;;;8.00;99.90;;;;;;5071062;28;20182;-79
2023/10/25 06:30:45;;;;;;;0.00;0.00;;;8.00;99.90;;;;;;5067253;28;20903;-78
2023/10/25 06:33:11;;;;;;;0.10;0.10;;;8.00;99.90;;;;;;5070504;28;20240;-78
2023/10/25 06:35:36;;;;;;;0.07;0.07;;;8.00;99.90;;;;;;5068150;28;20190;-78
2023/10/25 06:38:02;;;;;;;0.10;0.10;;;8.00;99.90;;;;;;5075692;28;20190;-78
2023/10/25 06:40:28;;;;;;;0.10;0.10;;;7.90;99.90;;;;;;5067239;28;20239;-78
2023/10/25 06:42:54;;;;;;;0.10;0.10;;;8.00;99.90;;;;;;5074058;28;20187;-78
2023/10/25 06:45:19;;;;;;;0.10;0.10;;;8.00;99.90;;;;;;5069012;28;20576;-79
2023/10/25 06:47:45;;;;;;;0.00;0.00;;;7.90;99.90;;;;;;5067489;28;20190;-79
2023/10/25 06:50:12;;;;;;;0.10;0.10;;;7.90;99.90;;;;;;5068212;28;20207;-79
2023/10/25 06:52:38;;;;;;;0.10;0.10;;;7.90;99.90;;;;;;5065891;28;20196;-78
2023/10/25 06:55:04;;;;;;;0.10;0.10;;;7.90;99.90;;;;;;5074557;28;20731;-78
2023/10/25 06:57:31;;;;;;;0.10;0.10;;;7.90;99.90;;;;;;5070943;28;20331;-78
2023/10/25 06:59:56;;;;;;;0.10;0.10;;;7.90;99.90;;;;;;5062194;28;20421;-78
2023/10/25 07:02:48;;;;;;;0.10;0.10;;;8.00;99.90;;;;;;5071690;28;20287;-78
2023/10/25 07:05:15;;;;;;;0.00;0.00;;;8.00;99.90;;;;;;5071563;28;20563;-78
2023/10/25 07:07:43;;;;;;;1.33;1.33;;;8.00;99.90;;;;;;5069437;28;20207;-79
2023/10/25 07:10:10;;;;;;;0.10;0.10;;;8.00;99.90;;;;;;5069238;28;20220;-79
2023/10/25 07:12:35;;;;;;;0.10;0.10;;;8.00;99.90;;;;;;5067962;28;20192;-78
2023/10/25 07:15:01;;;;;;;0.03;0.03;;;8.00;99.90;;;;;;5069767;28;20191;-78
2023/10/25 07:17:27;;;;;;;0.10;0.10;;;8.00;99.90;;;;;;5066139;28;20191;-78
2023/10/25 07:19:53;;;;;;;0.10;0.10;;;8.00;99.90;;;;;;5071434;28;20244;-78
2023/10/25 07:22:19;;;;;;;0.00;0.00;;;8.10;99.90;;;;;;5071564;28;20681;-78
2023/10/25 07:24:45;;;;;;;0.03;0.03;;;8.20;99.90;;;;;;5063130;28;20206;-78
2023/10/25 07:27:10;;;;;;;0.00;0.00;;;8.20;99.90;;;;;;5069484;28;20237;-79
2023/10/25 07:29:36;;;;;;;0.10;0.10;;;8.30;99.90;;;;;;5071108;28;20219;-79
2023/10/25 07:32:03;;;;;;;0.10;0.10;;;8.30;99.90;;;;;;5071866;28;20277;-79
2023/10/25 07:34:29;;;;;;;0.10;0.10;;;8.40;99.90;;;;;;5068217;28;20239;-79
2023/10/25 07:36:54;;;;;;;0.00;0.00;;;8.50;99.90;;;;;;5074380;28;20670;-79
2023/10/25 07:39:20;;;;;;;0.10;0.10;;;8.60;99.90;;;;;;5067983;28;20220;-78
2023/10/25 07:41:46;;;;;;;0.00;0.00;;;8.60;99.90;;;;;;5070338;28;20183;-78
2023/10/25 07:44:11;;;;;;;0.07;0.07;;;8.70;99.90;;;;;;5064755;28;20183;-79
2023/10/25 07:46:37;;;;;;;0.00;0.00;;;8.90;99.90;;;;;;5070385;28;20232;-78
2023/10/25 07:49:03;;;;;;;0.00;0.00;;;9.00;99.90;;;;;;5071640;28;20210;-79
2023/10/25 07:51:28;;;;;;;0.10;0.10;;;9.10;99.90;;;;;;5064350;28;20197;-79
2023/10/25 07:53:54;;;;;;;0.10;0.10;;;9.20;99.90;;;;;;5073436;28;20548;-79
2023/10/25 07:56:20;;;;;;;0.10;0.10;;;9.20;99.90;;;;;;5069597;28;20622;-79
2023/10/25 07:58:45;;;;;;;0.10;0.10;;;9.30;99.90;;;;;;5073260;28;20578;-79
2023/10/25 08:01:12;;;;;;;0.00;0.00;;;9.30;99.90;;;;;;5068773;28;20299;-79
2023/10/25 08:03:38;;;;;;;0.10;0.10;;;9.40;99.90;;;;;;5070713;28;20215;-78
2023/10/25 08:06:05;;;;;;;0.10;0.10;;;9.50;99.90;;;;;;5072157;28;20646;-79
2023/10/25 08:08:31;;;;;;;0.10;0.10;;;9.80;99.90;;;;;;5071899;28;21061;-78
2023/10/25 08:11:05;;;;;;;0.10;0.10;;;9.80;99.90;;;;;;5068427;28;20247;-79
2023/10/25 08:13:33;;;;;;;0.10;0.10;;;10.00;99.90;;;;;;5071625;28;20189;-78
2023/10/25 08:16:02;;;;;;;0.07;0.07;;;10.10;99.90;;;;;;5069266;28;20224;-78
2023/10/25 08:18:30;;;;;;;0.00;0.00;;;10.20;99.90;;;;;;5070201;28;20279;-79
2023/10/25 08:20:59;;;;;;;0.10;0.10;;;10.20;99.90;;;;;;5070611;28;20218;-79
2023/10/25 08:23:25;;;;;;;0.10;0.10;;;10.30;99.90;;;;;;5066017;28;20185;-79
2023/10/25 08:25:51;;;;;;;0.10;0.10;;;10.20;99.90;;;;;;5069572;28;20204;-79
2023/10/25 08:28:17;;;;;;;0.10;0.10;;;10.10;99.90;;;;;;5067499;28;20539;-79
2023/10/25 08:30:43;;;;;;;0.00;0.00;;;10.20;99.90;;;;;;5062202;28;20189;-79
2023/10/25 08:33:10;;;;;;;0.00;0.00;;;10.30;99.90;;;;;;5062599;28;20235;-79
2023/10/25 08:35:37;;;;;;;0.10;0.10;;;10.40;99.90;;;;;;5070185;28;20192;-79
2023/10/25 08:38:03;;;;;;;0.00;0.00;;;10.50;99.90;;;;;;5064472;28;20644;-79
2023/10/25 08:40:29;;;;;;;0.10;0.10;;;10.60;99.90;;;;;;5067506;28;20288;-79
2023/10/25 08:42:59;;;;;;;0.10;0.10;;;10.60;99.90;;;;;;5065366;28;20231;-79
2023/10/25 08:45:25;;;;;;;0.10;0.10;;;10.50;99.90;;;;;;5086893;28;20186;-78
2023/10/25 08:47:51;;;;;;;0.07;0.07;;;10.10;99.90;;;;;;5071309;28;20204;-79
2023/10/25 08:50:19;;;;;;;0.10;0.10;;;10.20;99.90;;;;;;5070135;28;20262;-78
2023/10/25 08:52:48;;;;;;;0.10;0.10;;;10.10;99.90;;;;;;5071142;28;20184;-77
2023/10/25 08:55:18;;;;;;;0.23;0.23;;;10.20;99.90;;;;;;5071373;28;20254;-79
2023/10/25 08:57:43;;;;;;;0.10;0.10;;;10.20;99.90;;;;;;5071673;28;20184;-78
2023/10/25 09:00:11;;;;;;;0.10;0.10;;;10.10;99.90;;;;;;5064192;28;20563;-78
2023/10/25 09:02:38;;;;;;;0.10;0.10;;;10.20;99.90;;;;;;5069353;28;20271;-78
2023/10/25 09:05:08;;;;;;;0.10;0.10;;;10.50;99.90;;;;;;5073481;28;20176;-79
2023/10/25 09:07:37;;;;;;;0.10;0.10;;;10.70;99.90;;;;;;5073108;28;20173;-79
2023/10/25 09:10:04;;;;;;;0.00;0.00;;;11.00;99.90;;;;;;5069172;28;20204;-79
2023/10/25 09:12:30;;;;;;;0.10;0.10;;;11.20;99.90;;;;;;5068281;28;20287;-80
2023/10/25 09:14:56;;;;;;;0.10;0.10;;;10.90;99.90;;;;;;5068470;28;20200;-78
2023/10/25 09:17:21;;;;;;;0.10;0.10;;;11.00;99.90;;;;;;5061490;28;20184;-79
2023/10/25 09:19:48;;;;;;;0.10;0.10;;;10.70;99.90;;;;;;5069586;28;20212;-79
2023/10/25 09:22:28;;;;;;;0.00;0.00;;;10.90;99.90;;;;;;5067879;28;20209;-80
2023/10/25 09:24:55;;;;;;;0.10;0.10;;;10.90;99.90;;;;;;5071230;28;20501;-80
2023/10/25 09:27:22;;;;;;;0.10;0.10;;;11.10;99.90;;;;;;5061815;28;20234;-80
2023/10/25 09:29:49;;;;;;;0.10;0.10;;;11.20;99.90;;;;;;5084381;28;20231;-80
2023/10/25 09:32:16;;;;;;;0.10;0.10;;;11.00;99.90;;;;;;5065856;28;20193;-79
2023/10/25 09:34:42;;;;;;;0.10;0.10;;;10.80;99.90;;;;;;5061516;28;20231;-80
2023/10/25 09:37:08;;;;;;;0.10;0.10;;;11.00;99.90;;;;;;5068147;28;20177;-79
2023/10/25 09:39:37;;;;;;;0.00;0.00;;;10.90;99.90;;;;;;5069082;28;20242;-80
2023/10/25 09:42:13;;;;;;;0.07;0.07;;;10.80;99.90;;;;;;5060144;28;20555;-80
2023/10/25 09:44:47;;;;;;;0.10;0.10;;;10.70;99.90;;;;;;5061314;28;20184;-79
2023/10/25 09:47:15;;;;;;;0.10;0.10;;;10.70;99.90;;;;;;5067958;28;20319;-80
2023/10/25 09:49:52;;;;;;;0.10;0.10;;;10.70;99.90;;;;;;5062136;28;20196;-80
2023/10/25 09:52:20;;;;;;;0.10;0.10;;;10.70;99.90;;;;;;5061703;28;20199;-79
2023/10/25 09:55:13;;;;;;;0.10;0.10;;;10.50;99.90;;;;;;5069633;28;20212;-80
2023/10/25 09:57:40;;;;;;;0.10;0.10;;;10.50;99.90;;;;;;5061658;28;20201;-80
2023/10/25 10:00:08;;;;;;;0.10;0.10;;;10.60;99.90;;;;;;5067369;28;20216;-80
2023/10/25 10:02:44;;;;;;;0.10;0.10;;;10.70;99.90;;;;;;5068564;28;20259;-80
2023/10/25 10:05:15;;;;;;;0.10;0.10;;;10.90;99.90;;;;;;5068492;28;20234;-79
2023/10/25 10:07:59;;;;;;;0.10;0.10;;;11.00;99.90;;;;;;5069851;28;20547;-80
2023/10/25 10:10:38;;;;;;;0.00;0.00;;;11.00;99.90;;;;;;5068670;28;20222;-80
2023/10/25 10:13:20;;;;;;;0.10;0.10;;;10.80;99.90;;;;;;5068800;28;20184;-80
2023/10/25 10:16:08;;;;;;;0.10;0.10;;;10.60;99.90;;;;;;5070019;28;20195;-80
2023/10/25 10:18:52;;;;;;;0.03;0.03;;;10.40;99.90;;;;;;5071088;28;20644;-80
2023/10/25 10:21:17;;;;;;;0.10;0.10;;;10.60;99.90;;;;;;5071048;28;20204;-79
2023/10/25 10:23:50;;;;;;;0.00;0.00;;;10.80;99.90;;;;;;5071716;28;20173;-80
2023/10/25 10:26:44;;;;;;;0.10;0.10;;;10.90;99.90;;;;;;5066101;28;20217;-80
2023/10/25 10:29:32;;;;;;;0.10;0.10;;;10.90;99.90;;;;;;5079218;28;20232;-81
2023/10/25 10:32:02;;;;;;;0.03;0.03;;;11.00;99.90;;;;;;5082976;28;20190;-80
2023/10/25 10:34:57;;;;;;;0.00;0.00;;;11.00;99.90;;;;;;5071841;28;20177;-79
2023/10/25 10:37:25;;;;;;;0.10;0.10;;;11.10;99.90;;;;;;5067708;28;20197;-78
2023/10/25 10:39:57;;;;;;;0.00;0.00;;;10.90;99.90;;;;;;5061255;28;20213;-79
2023/10/25 10:42:28;;;;;;;0.10;0.10;;;10.90;99.90;;;;;;5067564;28;20212;-79
2023/10/25 10:44:55;;;;;;;0.10;0.10;;;11.00;99.90;;;;;;5069795;28;20177;-79
2023/10/25 10:47:37;;;;;;;0.10;0.10;;;10.70;99.90;;;;;;5064066;28;20217;-79
2023/10/25 10:50:14;;;;;;;0.10;0.10;;;10.90;99.90;;;;;;5066094;28;20219;-78
2023/10/25 10:52:41;;;;;;;0.10;0.10;;;10.90;99.90;;;;;;5070584;28;20184;-78
2023/10/25 10:55:08;;;;;;;0.10;0.10;;;10.80;99.90;;;;;;5067450;28;20192;-78
2023/10/25 10:57:36;;;;;;;0.10;0.10;;;10.80;99.90;;;;;;5086955;28;20192;-78
2023/10/25 11:00:04;;;;;;;0.03;0.03;;;10.90;99.90;;;;;;5062538;28;20223;-78
2023/10/25 11:02:30;;;;;;;0.10;0.10;;;10.90;99.90;;;;;;5065506;28;20727;-78
2023/10/25 11:04:55;;;;;;;0.00;0.00;;;11.00;99.90;;;;;;5065966;28;20220;-79
2023/10/25 11:07:21;;;;;;;0.10;0.10;;;10.90;99.90;;;;;;5064966;28;20193;-78
2023/10/25 11:09:46;;;;;;;0.10;0.10;;;10.80;99.90;;;;;;5066915;28;20205;-78
2023/10/25 11:12:15;;;;;;;0.10;0.10;;;10.90;99.90;;;;;;5065606;28;20205;-79
2023/10/25 11:14:42;;;;;;;0.00;0.00;;;10.80;99.90;;;;;;5072213;28;20195;-79
2023/10/25 11:17:08;;;;;;;0.10;0.10;;;10.80;99.90;;;;;;5067424;28;20220;-79
2023/10/25 11:19:33;;;;;;;0.10;0.10;;;10.70;99.90;;;;;;5071781;28;20258;-78
2023/10/25 11:21:59;;;;;;;0.10;0.10;;;10.90;99.90;;;;;;5070774;28;20284;-78
2023/10/25 11:24:26;;;;;;;0.10;0.10;;;10.90;99.90;;;;;;5070749;28;20342;-78
2023/10/25 11:26:53;;;;;;;0.10;0.10;;;10.90;99.90;;;;;;5064875;28;20188;-78
2023/10/25 11:29:20;;;;;;;0.10;0.10;;;11.00;99.90;;;;;;5067961;28;20208;-79
2023/10/25 11:31:48;;;;;;;0.07;0.07;;;11.00;99.90;;;;;;5071671;28;20238;-78
2023/10/25 11:34:20;;;;;;;0.10;0.10;;;11.10;99.90;;;;;;5070366;28;20596;-78
2023/10/25 11:36:47;;;;;;;0.10;0.10;;;11.10;99.90;;;;;;5071113;28;20238;-78
2023/10/25 11:39:13;;;;;;;0.10;0.10;;;11.10;99.90;;;;;;5064548;28;20208;-78
2023/10/25 11:41:39;;;;;;;0.10;0.10;;;11.10;99.90;;;;;;5065208;28;21167;-78
2023/10/25 11:44:05;;;;;;;0.10;0.10;;;11.20;99.90;;;;;;5063523;28;20201;-78
2023/10/25 11:46:35;;;;;;;0.10;0.10;;;11.20;99.90;;;;;;5069251;28;20647;-78
2023/10/25 11:49:02;;;;;;;0.00;0.00;;;11.20;99.90;;;;;;5065445;28;20208;-78
2023/10/25 11:51:28;;;;;;;0.00;0.00;;;11.30;99.90;;;;;;5070988;28;20587;-78
2023/10/25 11:53:53;;;;;;;0.10;0.10;;;11.40;99.90;;;;;;5068825;28;20180;-78
2023/10/25 11:56:21;;;;;;;0.00;0.00;;;11.30;99.90;;;;;;5071295;28;20592;-79
2023/10/25 11:58:47;;;;;;;0.10;0.10;;;11.50;99.90;;;;;;5069893;28;20266;-78
2023/10/25 12:01:13;;;;;;;0.10;0.10;;;11.70;99.90;;;;;;5066829;28;20225;-78
2023/10/25 12:03:40;;;;;;;0.10;0.10;;;11.70;99.90;;;;;;5063397;28;20191;-78
2023/10/25 12:06:06;;;;;;;0.00;0.00;;;11.50;99.90;;;;;;5068860;28;20227;-78
2023/10/25 12:08:31;;;;;;;0.10;0.10;;;11.60;99.90;;;;;;5069817;28;20185;-78
2023/10/25 12:10:57;;;;;;;0.10;0.10;;;11.80;99.90;;;;;;5066626;28;20199;-78
2023/10/25 12:13:22;;;;;;;0.10;0.10;;;11.70;99.90;;;;;;5064012;28;20610;-79
2023/10/25 12:15:48;;;;;;;0.10;0.10;;;11.80;99.90;;;;;;5070517;28;20193;-78
2023/10/25 12:18:13;;;;;;;0.07;0.07;;;11.70;99.90;;;;;;5067991;28;20193;-78
2023/10/25 12:20:39;;;;;;;0.10;0.10;;;11.70;99.90;;;;;;5061623;28;20597;-78
2023/10/25 12:23:04;;;;;;;0.10;0.10;;;11.70;99.90;;;;;;5068347;28;20672;-79
2023/10/25 12:25:30;;;;;;;0.10;0.10;;;11.70;99.90;;;;;;5068810;28;20242;-79
2023/10/25 12:27:56;;;;;;;0.10;0.10;;;11.80;99.90;;;;;;5067649;28;21046;-79
2023/10/25 12:30:22;;;;;;;0.10;0.10;;;11.80;99.90;;;;;;5067730;28;20222;-80
2023/10/25 12:32:50;;;;;;;0.10;0.10;;;11.90;99.90;;;;;;5068572;28;20196;-79
2023/10/25 12:35:16;;;;;;;0.10;0.10;;;11.90;99.90;;;;;;5067543;28;20188;-79
2023/10/25 12:37:41;;;;;;;0.10;0.10;;;11.90;99.90;;;;;;5066998;28;20185;-79
2023/10/25 12:40:08;;;;;;;0.10;0.10;;;12.00;99.90;;;;;;5070513;28;20212;-79
2023/10/25 12:42:34;;;;;;;0.10;0.10;;;12.00;99.90;;;;;;5068796;28;20185;-79
2023/10/25 12:44:59;;;;;;;0.10;0.10;;;12.00;99.90;;;;;;5066562;28;20200;-78
2023/10/25 12:47:25;;;;;;;0.10;0.10;;;12.10;99.90;;;;;;5060894;28;20186;-81
2023/10/25 12:49:50;;;;;;;0.10;0.10;;;12.00;99.90;;;;;;5071742;28;20209;-79
2023/10/25 12:52:16;;;;;;;0.10;0.10;;;12.00;99.90;;;;;;5064393;28;20193;-78
2023/10/25 12:54:41;;;;;;;0.10;0.10;;;12.00;99.90;;;;;;5066970;28;20618;-78